Time;durP1;ratioP1;P1;durP2;ratioP2;P2;SDS_P1;SDS_P2;PMS_P1;PMS_P2;Temp;Humidity;BMP_temperature;BMP_pressure;BME280_temperature;BME280_humidity;BME280_pressure;Samples;Min_cycle;Max_cycle;Signal;HPM_P1;HPM_P2
2023/09/20 00:01:31;;;;;;;;;;;;;;;12.68;93.44;100199.71;107521;277;113461;-54
2023/09/20 00:04:07;;;;;;;;;;;;;;;12.68;93.35;100205.30;107527;277;97417;-54
2023/09/20 00:06:43;;;;;;;;;;;;;;;12.69;93.69;100204.75;108041;277;97547;-59
2023/09/20 00:09:18;;;;;;;;;;;;;;;12.68;93.40;100205.47;108842;277;119714;-59
2023/09/20 00:11:53;;;;;;;;;;;;;;;12.63;93.51;100202.87;108264;277;104468;-56
2023/09/20 00:14:22;;;;;;;;;;;;;;;12.63;93.63;100203.24;107477;277;115292;-56
2023/09/20 00:16:55;;;;;;;;;;;;;;;12.66;93.58;100206.08;107485;277;96046;-53
2023/09/20 00:19:30;;;;;;;;;;;;;;;12.64;93.71;100208.20;107482;277;98458;-53
2023/09/20 00:22:10;;;;;;;;;;;;;;;12.65;93.75;100208.63;107499;277;119405;-54
2023/09/20 00:24:41;;;;;;;;;;;;;;;12.64;93.73;100207.71;107465;277;106630;-54
2023/09/20 00:27:17;;;;;;;;;;;;;;;12.61;93.52;100209.91;107569;277;112799;-58
2023/09/20 00:29:48;;;;;;;;;;;;;;;12.54;93.50;100212.61;107475;277;97091;-58
2023/09/20 00:32:23;;;;;;;;;;;;;;;12.52;93.77;100208.95;108468;277;96958;-58
2023/09/20 00:35:02;;;;;;;;;;;;;;;12.51;93.39;100209.29;109117;277;118737;-58
2023/09/20 00:37:35;;;;;;;;;;;;;;;12.44;93.68;100208.90;107892;277;105931;-56
2023/09/20 00:40:15;;;;;;;;;;;;;;;12.40;93.46;100211.35;107483;277;116011;-55
2023/09/20 00:42:50;;;;;;;;;;;;;;;12.34;93.48;100210.70;107628;277;95935;-56
2023/09/20 00:45:24;;;;;;;;;;;;;;;12.34;93.52;100213.00;107693;277;98368;-55
2023/09/20 00:48:05;;;;;;;;;;;;;;;12.32;93.62;100217.59;109060;277;120801;-56
2023/09/20 00:50:52;;;;;;;;;;;;;;;12.29;93.69;100218.83;109298;277;104724;-57
2023/09/20 00:53:28;;;;;;;;;;;;;;;12.29;93.65;100223.00;109261;277;112664;-54
2023/09/20 00:56:09;;;;;;;;;;;;;;;12.28;93.35;100222.61;109096;277;96252;-56
2023/09/20 00:58:43;;;;;;;;;;;;;;;12.27;93.63;100225.56;107612;277;97909;-53
2023/09/20 01:01:15;;;;;;;;;;;;;;;12.27;93.55;100227.11;107542;277;119833;-56
2023/09/20 01:03:49;;;;;;;;;;;;;;;12.28;93.80;100224.20;107543;277;106512;-57
2023/09/20 01:06:28;;;;;;;;;;;;;;;12.27;93.86;100220.81;107550;277;113789;-56
2023/09/20 01:08:58;;;;;;;;;;;;;;;12.29;93.97;100223.27;107576;277;94528;-55
2023/09/20 01:11:46;;;;;;;;;;;;;;;12.28;93.79;100224.66;107649;277;98224;-54
2023/09/20 01:14:17;;;;;;;;;;;;;;;12.27;93.72;100226.52;107636;277;120489;-54
2023/09/20 01:16:48;;;;;;;;;;;;;;;12.28;93.84;100231.95;107577;277;104069;-57
2023/09/20 01:19:28;;;;;;;;;;;;;;;12.27;93.82;100231.11;107637;277;113926;-57
2023/09/20 01:22:03;;;;;;;;;;;;;;;12.25;93.87;100228.77;107642;277;95708;-57
2023/09/20 01:24:33;;;;;;;;;;;;;;;12.24;93.93;100232.57;107670;277;96755;-57
2023/09/20 01:27:17;;;;;;;;;;;;;;;12.23;93.99;100235.77;108429;277;120186;-59
2023/09/20 01:29:56;;;;;;;;;;;;;;;12.21;93.93;100237.30;109204;277;103338;-59
2023/09/20 01:32:30;;;;;;;;;;;;;;;12.27;94.06;100240.86;109138;277;112628;-59
2023/09/20 01:35:14;;;;;;;;;;;;;;;12.28;94.09;100238.16;109214;277;95002;-58
2023/09/20 01:38:15;;;;;;;;;;;;;;;12.31;94.10;100240.49;109206;277;96581;-57
2023/09/20 01:40:55;;;;;;;;;;;;;;;12.32;94.03;100239.05;109161;277;119309;-57
2023/09/20 01:43:26;;;;;;;;;;;;;;;12.36;94.16;100237.02;107600;277;104993;-54
2023/09/20 01:46:09;;;;;;;;;;;;;;;12.37;94.17;100236.80;107661;277;115061;-55
2023/09/20 01:48:43;;;;;;;;;;;;;;;12.35;94.07;100237.72;109160;277;96009;-54
2023/09/20 01:51:15;;;;;;;;;;;;;;;12.37;94.10;100236.77;108931;277;95374;-54
2023/09/20 01:53:55;;;;;;;;;;;;;;;12.37;93.98;100238.31;107604;277;120257;-55
2023/09/20 01:56:33;;;;;;;;;;;;;;;12.35;94.14;100241.52;107604;277;106246;-57
2023/09/20 01:59:08;;;;;;;;;;;;;;;12.35;94.00;100241.73;107591;277;114236;-58
2023/09/20 02:01:48;;;;;;;;;;;;;;;12.31;94.05;100240.03;107656;277;96518;-56
2023/09/20 02:04:20;;;;;;;;;;;;;;;12.31;94.02;100240.42;107619;277;98275;-55
2023/09/20 02:06:57;;;;;;;;;;;;;;;12.35;94.02;100241.22;107677;277;120454;-55
2023/09/20 02:09:31;;;;;;;;;;;;;;;12.37;94.15;100243.05;107638;277;104624;-55
2023/09/20 02:12:21;;;;;;;;;;;;;;;12.35;94.13;100247.67;108463;277;114213;-56
2023/09/20 02:14:54;;;;;;;;;;;;;;;12.32;94.17;100247.88;109234;277;94989;-55
2023/09/20 02:17:30;;;;;;;;;;;;;;;12.33;94.06;100243.84;109141;277;96059;-56
2023/09/20 02:20:08;;;;;;;;;;;;;;;12.36;93.95;100251.52;109221;277;118991;-58
2023/09/20 02:22:40;;;;;;;;;;;;;;;12.36;94.11;100248.64;107915;277;103744;-55
2023/09/20 02:25:12;;;;;;;;;;;;;;;12.35;94.20;100246.77;107491;277;114634;-55
2023/09/20 02:27:44;;;;;;;;;;;;;;;12.33;93.87;100249.59;107508;277;96790;-57
2023/09/20 02:30:19;;;;;;;;;;;;;;;12.30;93.81;100250.04;107486;277;96705;-57
2023/09/20 02:33:05;;;;;;;;;;;;;;;12.29;93.88;100255.37;108906;277;120449;-59
2023/09/20 02:35:46;;;;;;;;;;;;;;;12.29;94.00;100253.90;109215;277;104324;-54
2023/09/20 02:38:19;;;;;;;;;;;;;;;12.28;93.90;100251.45;107537;277;113929;-55
2023/09/20 02:40:58;;;;;;;;;;;;;;;12.27;93.97;100253.63;107575;277;95191;-56
2023/09/20 02:43:39;;;;;;;;;;;;;;;12.23;93.84;100247.02;107546;277;98288;-55
2023/09/20 02:46:28;;;;;;;;;;;;;;;12.18;93.84;100252.45;107862;277;120125;-56
2023/09/20 02:49:11;;;;;;;;;;;;;;;12.13;93.85;100254.77;109109;277;103120;-56
2023/09/20 02:51:52;;;;;;;;;;;;;;;12.14;93.93;100251.04;108162;277;112612;-53
2023/09/20 02:54:29;;;;;;;;;;;;;;;12.15;93.89;100255.83;107523;277;97152;-54
2023/09/20 02:57:02;;;;;;;;;;;;;;;12.15;93.69;100252.95;107582;277;96086;-54
2023/09/20 02:59:39;;;;;;;;;;;;;;;12.12;93.83;100252.73;107472;277;121104;-53
2023/09/20 03:02:17;;;;;;;;;;;;;;;12.10;93.77;100256.98;107582;277;105507;-53
2023/09/20 03:04:52;;;;;;;;;;;;;;;12.09;93.93;100251.02;107520;277;114246;-53
2023/09/20 03:07:23;;;;;;;;;;;;;;;12.08;93.80;100255.17;107519;277;96732;-54
2023/09/20 03:09:58;;;;;;;;;;;;;;;12.09;93.96;100252.21;107435;277;97042;-54
2023/09/20 03:12:31;;;;;;;;;;;;;;;12.09;93.87;100256.84;107525;277;120198;-53
2023/09/20 03:15:04;;;;;;;;;;;;;;;12.07;94.03;100257.75;107517;277;104336;-53
2023/09/20 03:17:43;;;;;;;;;;;;;;;12.03;93.90;100254.32;108442;277;116172;-59
2023/09/20 03:20:25;;;;;;;;;;;;;;;12.01;93.86;100261.14;108806;277;94531;-58
2023/09/20 03:23:03;;;;;;;;;;;;;;;12.03;93.86;100255.40;108651;277;96012;-58
2023/09/20 03:25:49;;;;;;;;;;;;;;;12.10;93.75;100255.27;108673;277;119121;-58
2023/09/20 03:28:27;;;;;;;;;;;;;;;12.14;93.70;100251.94;107560;277;105084;-55
2023/09/20 03:31:10;;;;;;;;;;;;;;;12.15;93.73;100256.03;107496;277;114125;-53
2023/09/20 03:33:42;;;;;;;;;;;;;;;12.10;93.69;100254.23;107534;277;96772;-56
2023/09/20 03:36:15;;;;;;;;;;;;;;;12.09;93.81;100253.76;107501;277;96650;-55
2023/09/20 03:38:50;;;;;;;;;;;;;;;12.04;93.86;100251.98;107470;277;118624;-54
2023/09/20 03:41:29;;;;;;;;;;;;;;;12.03;93.77;100257.27;107531;277;105756;-55
2023/09/20 03:44:02;;;;;;;;;;;;;;;12.01;93.64;100256.73;107518;277;114895;-55
2023/09/20 03:46:40;;;;;;;;;;;;;;;12.01;93.71;100257.27;107762;277;97453;-57
2023/09/20 03:49:16;;;;;;;;;;;;;;;11.99;93.74;100256.72;108631;277;96654;-58
2023/09/20 03:51:49;;;;;;;;;;;;;;;11.96;93.74;100256.54;108131;277;117980;-53
2023/09/20 03:54:21;;;;;;;;;;;;;;;11.96;93.64;100257.16;107539;277;103995;-54
2023/09/20 03:57:00;;;;;;;;;;;;;;;11.92;93.68;100257.18;107148;277;444680;-57
2023/09/20 03:59:34;;;;;;;;;;;;;;;11.92;93.65;100256.18;107437;277;95457;-57
2023/09/20 04:02:13;;;;;;;;;;;;;;;11.92;93.55;100256.27;107517;277;98208;-54
2023/09/20 04:04:45;;;;;;;;;;;;;;;11.87;93.61;100258.55;107524;277;120380;-53
2023/09/20 04:07:25;;;;;;;;;;;;;;;11.83;93.61;100257.35;108322;277;105838;-58
2023/09/20 04:09:56;;;;;;;;;;;;;;;11.82;93.72;100255.73;108745;277;113638;-58
2023/09/20 04:12:29;;;;;;;;;;;;;;;11.80;93.56;100255.96;107911;277;94619;-54
2023/09/20 04:15:04;;;;;;;;;;;;;;;11.79;93.63;100259.45;107545;277;98545;-55
2023/09/20 04:17:48;;;;;;;;;;;;;;;11.81;93.67;100258.85;108256;277;120078;-59
2023/09/20 04:20:29;;;;;;;;;;;;;;;11.85;93.78;100261.44;108702;277;106015;-58
2023/09/20 04:23:06;;;;;;;;;;;;;;;11.88;93.70;100264.99;108617;277;112664;-58
2023/09/20 04:25:42;;;;;;;;;;;;;;;11.92;93.75;100266.34;108740;277;95185;-59
2023/09/20 04:28:21;;;;;;;;;;;;;;;11.98;93.78;100268.41;107508;277;96249;-56
2023/09/20 04:30:57;;;;;;;;;;;;;;;12.04;93.79;100264.69;107496;277;120407;-56
2023/09/20 04:33:32;;;;;;;;;;;;;;;12.11;93.88;100263.94;107507;277;105116;-57
2023/09/20 04:36:14;;;;;;;;;;;;;;;12.15;93.95;100266.31;107586;277;113638;-58
2023/09/20 04:38:51;;;;;;;;;;;;;;;12.18;93.91;100266.21;108806;277;94666;-58
2023/09/20 04:41:25;;;;;;;;;;;;;;;12.22;93.87;100264.64;108463;277;96154;-55
2023/09/20 04:44:03;;;;;;;;;;;;;;;12.30;93.80;100263.22;107460;277;119936;-55
2023/09/20 04:46:42;;;;;;;;;;;;;;;12.35;93.82;100261.60;107541;277;105379;-53
2023/09/20 04:49:19;;;;;;;;;;;;;;;12.40;93.98;100263.82;107546;277;113956;-55
2023/09/20 04:51:54;;;;;;;;;;;;;;;12.51;93.90;100263.67;107607;277;97071;-57
2023/09/20 04:54:25;;;;;;;;;;;;;;;12.61;93.81;100261.24;107501;277;98822;-56
2023/09/20 04:57:00;;;;;;;;;;;;;;;12.71;93.58;100253.31;107684;277;120980;-54
2023/09/20 04:59:38;;;;;;;;;;;;;;;12.84;93.45;100255.10;107643;277;105096;-55
2023/09/20 05:02:16;;;;;;;;;;;;;;;12.91;93.54;100260.65;107663;277;114679;-55
2023/09/20 05:04:56;;;;;;;;;;;;;;;12.98;93.69;100261.81;107639;277;96464;-55
2023/09/20 05:07:27;;;;;;;;;;;;;;;13.12;93.82;100258.17;107695;277;97405;-54
2023/09/20 05:10:00;;;;;;;;;;;;;;;13.35;93.57;100254.36;107518;277;120125;-53
2023/09/20 05:12:39;;;;;;;;;;;;;;;13.64;93.30;100252.56;108678;277;104530;-59
2023/09/20 05:15:18;;;;;;;;;;;;;;;13.82;93.20;100256.73;108865;277;112802;-58
2023/09/20 05:17:49;;;;;;;;;;;;;;;13.85;92.77;100256.60;107803;277;94839;-58
2023/09/20 05:20:23;;;;;;;;;;;;;;;13.89;92.74;100258.13;107586;277;97068;-57
2023/09/20 05:22:57;;;;;;;;;;;;;;;13.99;92.37;100255.58;108662;277;120136;-59
2023/09/20 05:25:34;;;;;;;;;;;;;;;14.08;92.44;100254.71;108755;277;103717;-58
2023/09/20 05:28:07;;;;;;;;;;;;;;;14.15;92.28;100255.48;108677;277;111708;-60
2023/09/20 05:30:50;;;;;;;;;;;;;;;14.24;91.88;100258.77;108923;277;94231;-58
2023/09/20 05:33:30;;;;;;;;;;;;;;;14.32;91.78;100254.61;107593;277;96295;-53
2023/09/20 05:36:05;;;;;;;;;;;;;;;14.36;91.56;100258.67;107622;277;119315;-54
2023/09/20 05:38:38;;;;;;;;;;;;;;;14.38;91.55;100259.23;107574;277;106049;-53
2023/09/20 05:41:15;;;;;;;;;;;;;;;14.39;91.48;100256.48;107589;277;114839;-59
2023/09/20 05:43:46;;;;;;;;;;;;;;;14.77;91.79;100255.98;107617;277;96833;-56
2023/09/20 05:46:20;;;;;;;;;;;;;;;15.61;91.54;100250.91;107672;277;97718;-57
2023/09/20 05:48:57;;;;;;;;;;;;;;;16.04;90.59;100257.88;107633;277;120256;-57
2023/09/20 05:51:36;;;;;;;;;;;;;;;16.24;90.19;100256.92;107547;277;104517;-54
2023/09/20 05:54:11;;;;;;;;;;;;;;;16.56;89.60;100255.28;107513;277;114087;-53
2023/09/20 05:56:50;;;;;;;;;;;;;;;16.63;88.82;100254.64;107587;277;94632;-53
2023/09/20 05:59:29;;;;;;;;;;;;;;;16.30;88.35;100257.47;107527;277;97347;-55
2023/09/20 06:02:05;;;;;;;;;;;;;;;16.15;88.53;100260.15;107519;277;121054;-56
2023/09/20 06:04:42;;;;;;;;;;;;;;;16.03;88.40;100256.77;107564;277;105387;-56
2023/09/20 06:07:19;;;;;;;;;;;;;;;15.94;88.03;100256.92;107563;277;114023;-58
2023/09/20 06:09:57;;;;;;;;;;;;;;;15.96;88.44;100254.64;107549;277;92933;-57
2023/09/20 06:12:30;;;;;;;;;;;;;;;15.97;88.10;100259.23;107535;277;98424;-57
2023/09/20 06:15:04;;;;;;;;;;;;;;;16.03;88.33;100261.16;107474;277;120554;-56
2023/09/20 06:17:40;;;;;;;;;;;;;;;16.12;87.94;100259.85;108267;277;105818;-58
2023/09/20 06:20:19;;;;;;;;;;;;;;;16.29;87.80;100261.71;108480;277;112758;-59
2023/09/20 06:22:54;;;;;;;;;;;;;;;16.32;87.72;100263.10;107677;277;92073;-57
2023/09/20 06:25:29;;;;;;;;;;;;;;;16.32;87.41;100267.59;107496;277;97100;-56
2023/09/20 06:28:09;;;;;;;;;;;;;;;16.33;87.39;100267.66;108215;277;119468;-58
2023/09/20 06:30:44;;;;;;;;;;;;;;;16.49;87.34;100269.09;108253;277;105980;-59
2023/09/20 06:33:25;;;;;;;;;;;;;;;16.62;86.46;100267.39;107442;277;116094;-58
2023/09/20 06:36:00;;;;;;;;;;;;;;;16.71;86.40;100269.81;107566;277;94305;-58
2023/09/20 06:38:35;;;;;;;;;;;;;;;16.77;86.24;100270.98;107548;277;94948;-57
2023/09/20 06:41:10;;;;;;;;;;;;;;;16.86;86.17;100273.19;107485;277;119381;-57
2023/09/20 06:43:48;;;;;;;;;;;;;;;17.08;86.05;100272.92;107508;277;104322;-56
2023/09/20 06:46:22;;;;;;;;;;;;;;;17.25;85.86;100275.47;107469;277;115280;-57
2023/09/20 06:49:03;;;;;;;;;;;;;;;17.33;85.76;100275.66;107518;277;96038;-57
2023/09/20 06:51:42;;;;;;;;;;;;;;;17.44;85.23;100278.45;107487;277;97106;-58
2023/09/20 06:54:21;;;;;;;;;;;;;;;17.57;85.12;100273.75;107504;277;120861;-58
2023/09/20 06:57:02;;;;;;;;;;;;;;;17.68;84.90;100273.24;107547;277;104934;-59
2023/09/20 06:59:37;;;;;;;;;;;;;;;17.82;84.44;100278.54;107511;277;115150;-58
2023/09/20 07:02:12;;;;;;;;;;;;;;;17.96;84.13;100282.04;107526;277;94494;-57
2023/09/20 07:04:48;;;;;;;;;;;;;;;18.28;83.93;100282.33;107551;277;98010;-57
2023/09/20 07:07:23;;;;;;;;;;;;;;;18.52;83.47;100284.74;107480;277;121264;-57
2023/09/20 07:10:00;;;;;;;;;;;;;;;18.60;82.84;100285.08;107554;277;104513;-57
2023/09/20 07:12:42;;;;;;;;;;;;;;;18.63;82.74;100287.55;107498;277;114774;-57
2023/09/20 07:15:21;;;;;;;;;;;;;;;18.73;82.41;100289.92;107518;277;95363;-58
2023/09/20 07:18:11;;;;;;;;;;;;;;;18.85;81.41;100290.18;107531;277;98252;-58
2023/09/20 07:20:42;;;;;;;;;;;;;;;18.88;81.05;100292.34;107629;277;119803;-59
2023/09/20 07:23:16;;;;;;;;;;;;;;;18.99;81.05;100293.35;107554;277;105026;-60
2023/09/20 07:25:49;;;;;;;;;;;;;;;19.06;81.00;100295.18;107570;277;113202;-59
2023/09/20 07:28:24;;;;;;;;;;;;;;;19.08;80.59;100295.11;107554;277;94448;-57
2023/09/20 07:31:03;;;;;;;;;;;;;;;19.08;80.68;100296.70;107562;277;97031;-58
2023/09/20 07:33:47;;;;;;;;;;;;;;;19.17;80.69;100302.02;107533;277;120900;-58
2023/09/20 07:36:21;;;;;;;;;;;;;;;19.22;80.25;100298.08;107592;277;103987;-58
2023/09/20 07:38:59;;;;;;;;;;;;;;;19.35;80.32;100303.64;107490;277;114189;-58
2023/09/20 07:41:39;;;;;;;;;;;;;;;19.65;80.64;100305.27;107548;277;95693;-58
2023/09/20 07:44:13;;;;;;;;;;;;;;;20.52;79.43;100312.74;107554;277;96821;-59
2023/09/20 07:46:48;;;;;;;;;;;;;;;21.59;78.29;100309.66;107569;277;119918;-59
2023/09/20 07:49:22;;;;;;;;;;;;;;;22.26;76.72;100304.98;107524;277;104569;-59
2023/09/20 07:51:55;;;;;;;;;;;;;;;23.57;75.61;100308.15;107518;277;114429;-59
2023/09/20 07:54:28;;;;;;;;;;;;;;;24.78;73.79;100312.46;107575;277;94076;-58
2023/09/20 07:57:10;;;;;;;;;;;;;;;26.48;71.70;100311.33;107584;277;97448;-58
2023/09/20 07:59:49;;;;;;;;;;;;;;;28.16;69.66;100307.17;107482;277;120840;-59
2023/09/20 08:02:24;;;;;;;;;;;;;;;29.56;67.02;100307.70;107569;277;104429;-58
2023/09/20 08:05:03;;;;;;;;;;;;;;;30.50;64.87;100306.05;107529;277;114722;-58
2023/09/20 08:07:40;;;;;;;;;;;;;;;31.37;61.05;100307.61;107507;277;95519;-58
2023/09/20 08:10:12;;;;;;;;;;;;;;;31.95;58.74;100307.89;107506;277;96743;-58
2023/09/20 08:12:48;;;;;;;;;;;;;;;32.30;56.53;100306.39;107564;277;119882;-59
2023/09/20 08:15:23;;;;;;;;;;;;;;;32.24;54.74;100304.77;107454;277;105226;-59
2023/09/20 08:20:47;;;;;;;;;;;;;;;30.76;52.81;100307.92;107463;277;94840;-58
2023/09/20 09:00:19;;;;;;;;;;;;;;;29.11;45.66;100286.65;107601;277;114580;-57
2023/09/20 09:02:57;;;;;;;;;;;;;;;28.60;45.33;100288.14;107635;277;95097;-58
2023/09/20 09:05:35;;;;;;;;;;;;;;;28.09;45.19;100289.34;107654;277;97079;-58
2023/09/20 09:08:13;;;;;;;;;;;;;;;27.67;44.91;100286.77;107699;277;120559;-58
2023/09/20 09:10:51;;;;;;;;;;;;;;;27.28;46.70;100288.66;107621;277;103956;-58
2023/09/20 09:13:28;;;;;;;;;;;;;;;27.16;47.53;100284.79;107633;277;113245;-58
2023/09/20 09:16:04;;;;;;;;;;;;;;;27.26;47.94;100290.18;107612;277;93850;-59
2023/09/20 09:18:37;;;;;;;;;;;;;;;27.58;47.88;100294.05;107618;277;97404;-59
2023/09/20 09:21:14;;;;;;;;;;;;;;;27.94;47.95;100287.58;107619;277;120770;-59
2023/09/20 09:23:51;;;;;;;;;;;;;;;28.58;47.25;100291.98;107583;277;104156;-59
2023/09/20 09:26:25;;;;;;;;;;;;;;;29.03;45.69;100293.48;107542;277;114610;-57
2023/09/20 09:28:59;;;;;;;;;;;;;;;29.11;45.04;100292.37;107476;277;93798;-57
2023/09/20 09:31:36;;;;;;;;;;;;;;;29.10;45.30;100295.09;107519;277;97325;-58
2023/09/20 09:34:18;;;;;;;;;;;;;;;29.11;44.86;100293.84;107529;277;120234;-57
2023/09/20 09:36:53;;;;;;;;;;;;;;;28.92;44.72;100290.83;107564;277;105660;-59
2023/09/20 09:39:29;;;;;;;;;;;;;;;28.49;45.04;100285.69;107533;277;114826;-58
2023/09/20 09:42:26;;;;;;;;;;;;;;;28.08;44.77;100284.92;107520;277;94702;-58
2023/09/20 09:45:02;;;;;;;;;;;;;;;27.56;45.39;100292.54;107524;277;97865;-55
2023/09/20 09:47:37;;;;;;;;;;;;;;;27.03;44.89;100290.88;107530;277;121483;-58
2023/09/20 09:50:10;;;;;;;;;;;;;;;26.59;45.52;100291.81;107553;277;105957;-58
2023/09/20 09:52:43;;;;;;;;;;;;;;;26.28;46.07;100288.67;107474;277;115211;-57
2023/09/20 09:55:23;;;;;;;;;;;;;;;26.06;45.74;100292.16;107517;277;94009;-58
2023/09/20 09:57:57;;;;;;;;;;;;;;;25.77;45.40;100294.02;107585;277;97508;-59
2023/09/20 10:00:40;;;;;;;;;;;;;;;25.46;46.03;100296.16;107524;277;120474;-59
2023/09/20 10:03:19;;;;;;;;;;;;;;;25.29;46.52;100293.86;107554;277;105885;-59
2023/09/20 10:05:54;;;;;;;;;;;;;;;25.10;46.40;100298.64;107676;277;112905;-56
2023/09/20 10:08:29;;;;;;;;;;;;;;;25.01;46.40;100304.08;107522;277;95175;-57
2023/09/20 10:11:05;;;;;;;;;;;;;;;24.95;46.09;100302.19;107515;277;97361;-54
2023/09/20 10:13:38;;;;;;;;;;;;;;;24.85;46.74;100302.20;107578;277;121961;-55
2023/09/20 10:16:16;;;;;;;;;;;;;;;24.72;47.10;100302.23;107545;277;104668;-57
2023/09/20 10:18:57;;;;;;;;;;;;;;;24.69;47.38;100301.02;107543;277;114173;-57
2023/09/20 10:21:33;;;;;;;;;;;;;;;24.62;46.45;100298.70;107564;277;93326;-56
2023/09/20 10:24:07;;;;;;;;;;;;;;;24.43;46.57;100298.29;107575;277;94911;-55
2023/09/20 10:26:54;;;;;;;;;;;;;;;24.38;47.23;100300.52;107544;277;120646;-55
2023/09/20 10:29:31;;;;;;;;;;;;;;;24.37;48.08;100299.52;107447;277;105300;-56
2023/09/20 10:32:13;;;;;;;;;;;;;;;24.32;47.77;100298.01;107507;277;115006;-58
2023/09/20 10:35:03;;;;;;;;;;;;;;;24.27;48.15;100290.29;107540;277;93697;-55
2023/09/20 10:37:39;;;;;;;;;;;;;;;24.24;48.02;100285.39;107584;277;97004;-58
2023/09/20 10:40:16;;;;;;;;;;;;;;;24.25;48.15;100290.63;107562;277;121533;-57
2023/09/20 10:43:00;;;;;;;;;;;;;;;24.25;48.17;100289.09;107650;277;105332;-59
2023/09/20 10:45:39;;;;;;;;;;;;;;;24.27;48.37;100290.02;107663;277;113602;-60
2023/09/20 10:48:16;;;;;;;;;;;;;;;24.27;48.22;100287.52;107634;277;94220;-60
2023/09/20 10:50:57;;;;;;;;;;;;;;;24.19;48.45;100284.91;107615;277;96383;-58
2023/09/20 10:53:55;;;;;;;;;;;;;;;24.18;48.43;100285.08;107523;277;120728;-56
2023/09/20 10:56:53;;;;;;;;;;;;;;;24.20;48.43;100282.70;107589;277;105512;-59
2023/09/20 10:59:32;;;;;;;;;;;;;;;24.15;47.61;100290.00;107649;277;112439;-60
2023/09/20 11:02:08;;;;;;;;;;;;;;;24.16;47.58;100287.84;107645;277;93381;-60
2023/09/20 11:04:41;;;;;;;;;;;;;;;24.13;47.78;100284.54;107616;277;97304;-60
2023/09/20 11:07:14;;;;;;;;;;;;;;;24.11;47.69;100280.52;107507;277;119096;-54
2023/09/20 11:09:47;;;;;;;;;;;;;;;24.09;47.80;100282.84;107478;277;106011;-56
2023/09/20 11:12:22;;;;;;;;;;;;;;;24.04;48.07;100279.41;107486;277;115101;-55
2023/09/20 11:14:57;;;;;;;;;;;;;;;24.02;48.04;100277.09;107488;277;94786;-55
2023/09/20 11:17:31;;;;;;;;;;;;;;;24.09;48.30;100272.77;107597;277;98102;-55
2023/09/20 11:20:07;;;;;;;;;;;;;;;24.14;47.77;100271.23;107588;277;118919;-54
2023/09/20 11:22:43;;;;;;;;;;;;;;;24.14;48.00;100272.40;107568;277;104650;-59
2023/09/20 11:25:23;;;;;;;;;;;;;;;24.16;48.10;100274.21;107621;277;114880;-60
2023/09/20 11:27:56;;;;;;;;;;;;;;;24.16;48.08;100273.88;107572;277;94899;-56
2023/09/20 11:30:28;;;;;;;;;;;;;;;24.14;47.85;100271.84;107533;277;96351;-56
2023/09/20 11:33:04;;;;;;;;;;;;;;;24.11;47.34;100269.91;107492;277;120235;-56
2023/09/20 11:35:37;;;;;;;;;;;;;;;24.06;47.80;100275.38;107459;277;105584;-56
2023/09/20 11:38:10;;;;;;;;;;;;;;;24.06;47.87;100271.45;107507;277;114178;-55
2023/09/20 11:40:49;;;;;;;;;;;;;;;24.08;48.19;100267.15;107502;277;94475;-55
2023/09/20 11:43:24;;;;;;;;;;;;;;;24.14;48.42;100272.23;107614;277;97541;-60
2023/09/20 11:46:00;;;;;;;;;;;;;;;24.21;48.36;100270.71;107574;277;120344;-54
2023/09/20 11:48:48;;;;;;;;;;;;;;;24.20;48.48;100271.55;107473;277;104515;-55
2023/09/20 11:51:24;;;;;;;;;;;;;;;24.10;48.49;100269.42;107557;277;113545;-58
2023/09/20 11:54:00;;;;;;;;;;;;;;;24.06;48.61;100272.06;107491;277;94622;-57
2023/09/20 11:56:41;;;;;;;;;;;;;;;24.02;48.66;100269.25;106988;277;700175;-59
2023/09/20 11:59:15;;;;;;;;;;;;;;;24.04;48.49;100266.59;107461;277;121355;-58
2023/09/20 12:01:53;;;;;;;;;;;;;;;24.11;48.46;100266.33;107579;277;104717;-59
2023/09/20 12:04:28;;;;;;;;;;;;;;;24.12;48.65;100258.54;107461;277;113298;-59
2023/09/20 12:07:04;;;;;;;;;;;;;;;24.11;48.69;100262.58;107481;277;94117;-62
2023/09/20 12:09:42;;;;;;;;;;;;;;;24.05;48.56;100261.64;107501;277;96647;-62
2023/09/20 12:12:23;;;;;;;;;;;;;;;23.97;48.43;100261.10;107511;277;120517;-64
2023/09/20 12:14:56;;;;;;;;;;;;;;;23.89;48.51;100264.39;107494;277;105738;-63
2023/09/20 12:17:31;;;;;;;;;;;;;;;23.87;48.97;100265.52;107430;277;114664;-59
2023/09/20 12:20:07;;;;;;;;;;;;;;;23.85;48.79;100261.02;107470;277;95577;-59
2023/09/20 12:22:40;;;;;;;;;;;;;;;23.81;48.73;100258.73;107553;277;95937;-62
2023/09/20 12:25:16;;;;;;;;;;;;;;;23.80;48.96;100258.11;107523;277;120899;-60
2023/09/20 12:27:50;;;;;;;;;;;;;;;23.77;48.45;100261.92;107576;277;104547;-56
2023/09/20 12:30:28;;;;;;;;;;;;;;;23.71;48.57;100254.77;107533;277;114532;-58
2023/09/20 12:33:01;;;;;;;;;;;;;;;23.65;48.81;100253.17;107532;277;94079;-56
2023/09/20 12:35:31;;;;;;;;;;;;;;;23.60;48.92;100249.80;107534;277;95571;-56
2023/09/20 12:38:06;;;;;;;;;;;;;;;23.66;49.28;100249.77;107471;277;120163;-57
2023/09/20 12:40:39;;;;;;;;;;;;;;;23.68;49.42;100247.73;107473;277;105633;-56
2023/09/20 12:43:11;;;;;;;;;;;;;;;23.67;49.34;100250.37;107486;277;114153;-59
2023/09/20 12:45:44;;;;;;;;;;;;;;;23.64;48.87;100245.36;107492;277;92571;-61
2023/09/20 12:48:15;;;;;;;;;;;;;;;23.60;49.02;100245.20;107611;277;98019;-57
2023/09/20 12:50:55;;;;;;;;;;;;;;;23.51;48.72;100243.45;107638;277;120812;-58
2023/09/20 12:53:33;;;;;;;;;;;;;;;23.50;49.05;100243.39;107642;277;105468;-62
2023/09/20 12:56:13;;;;;;;;;;;;;;;23.54;49.10;100242.55;107629;277;114587;-59
2023/09/20 12:58:50;;;;;;;;;;;;;;;23.59;49.19;100241.27;107599;277;94771;-59
2023/09/20 13:01:29;;;;;;;;;;;;;;;23.61;49.47;100237.91;107596;277;97833;-56
2023/09/20 13:04:06;;;;;;;;;;;;;;;23.58;49.55;100238.41;107603;277;120737;-58
2023/09/20 13:06:43;;;;;;;;;;;;;;;23.52;49.25;100238.31;107592;277;103846;-56
2023/09/20 13:09:21;;;;;;;;;;;;;;;23.47;48.87;100235.23;107600;277;112327;-56
2023/09/20 13:11:53;;;;;;;;;;;;;;;23.43;48.63;100229.34;107597;277;93414;-53
2023/09/20 13:14:25;;;;;;;;;;;;;;;23.47;48.76;100227.62;107658;277;98315;-55
2023/09/20 13:17:04;;;;;;;;;;;;;;;23.48;48.88;100223.21;107598;277;119476;-53
2023/09/20 13:19:36;;;;;;;;;;;;;;;23.48;49.08;100224.86;107639;277;104092;-60
2023/09/20 13:22:09;;;;;;;;;;;;;;;23.47;49.29;100226.73;107666;277;114899;-55
2023/09/20 13:24:46;;;;;;;;;;;;;;;23.41;49.30;100225.30;107660;277;94172;-59
2023/09/20 13:27:24;;;;;;;;;;;;;;;23.34;49.38;100224.08;107684;274;96880;-55
2023/09/20 13:29:54;;;;;;;;;;;;;;;23.28;49.32;100219.66;107643;277;120247;-57
2023/09/20 13:32:25;;;;;;;;;;;;;;;23.16;49.26;100222.15;107680;277;104550;-60
2023/09/20 13:35:02;;;;;;;;;;;;;;;23.09;49.51;100219.79;107706;277;114922;-59
2023/09/20 13:37:40;;;;;;;;;;;;;;;23.05;49.67;100217.85;107639;277;93761;-56
2023/09/20 13:40:13;;;;;;;;;;;;;;;23.00;49.50;100218.63;107616;277;96123;-55
2023/09/20 13:42:48;;;;;;;;;;;;;;;22.97;49.93;100213.71;107629;277;120215;-57
2023/09/20 13:45:26;;;;;;;;;;;;;;;22.98;49.92;100212.84;107573;277;105622;-57
2023/09/20 13:48:00;;;;;;;;;;;;;;;22.97;49.63;100207.50;107716;277;114289;-59
2023/09/20 13:50:38;;;;;;;;;;;;;;;22.97;49.69;100210.85;107793;277;92875;-59
2023/09/20 13:53:17;;;;;;;;;;;;;;;22.95;50.07;100212.85;107622;277;96545;-56
2023/09/20 13:56:03;;;;;;;;;;;;;;;22.91;50.39;100211.40;107619;277;121181;-56
2023/09/20 13:58:40;;;;;;;;;;;;;;;22.87;50.54;100211.13;107591;277;106107;-56